Terminal Aerodrome Forecast
Issued by NWS

Current Version | Previous Version | Text Only | Print | Product List | Glossary Off
Versions: 1 2 3 4 5 6 7 8 9 10 11 12 13 14 15 16 17 18 19 20 21 22

000
FTUS41 KILN 301739
TAFLUK
TAF
KLUK 301739Z 3018/3118 20008KT P6SM VCTS BKN040CB
     FM310100 00000KT P6SM SCT045 SCT100 BKN250
     FM310400 00000KT 3SM BR SCT045 SCT100 BKN250
     FM310800 20003KT 1/4SM FG VV002
     FM311300 00000KT 2SM BR SCT002 SCT100 SCT250
     FM311400 24005KT P6SM FEW025 SCT100=

USA.gov is the U.S. government's official web portal to all federal, state and local government web resources and services.